createdAt,value
2022-11-18T00:00:40.118Z,26.85
2022-11-18T00:03:43.842Z,24.63
2022-11-18T00:06:46.659Z,26.70
2022-11-18T00:09:50.691Z,25.50
2022-11-18T00:13:10.964Z,26.70
2022-11-18T00:16:13.924Z,24.23
2022-11-18T00:19:17.371Z,29.30
2022-11-18T00:22:23.253Z,24.48
2022-11-18T00:25:29.613Z,29.07
2022-11-18T00:28:32.850Z,26.00
2022-11-18T00:31:36.297Z,25.42
2022-11-18T00:34:39.074Z,22.95
2022-11-18T00:37:41.731Z,23.27
2022-11-18T00:40:46.285Z,24.57
2022-11-18T00:43:49.104Z,27.00
2022-11-18T00:46:52.046Z,26.13
2022-11-18T00:49:54.778Z,25.30
2022-11-18T00:52:57.587Z,25.52
2022-11-18T00:56:01.703Z,25.13
2022-11-18T00:59:04.666Z,22.45
2022-11-18T01:02:07.382Z,26.13
2022-11-18T01:05:10.565Z,26.38
2022-11-18T01:08:14.076Z,24.63
2022-11-18T01:11:35.863Z,24.17
2022-11-18T01:14:38.559Z,28.05
2022-11-18T01:17:41.467Z,27.00
2022-11-18T01:20:44.585Z,26.13
2022-11-18T01:23:47.392Z,23.67
2022-11-18T01:26:51.458Z,25.50
2022-11-18T01:29:54.342Z,23.98
2022-11-18T01:32:57.087Z,25.35
2022-11-18T01:35:59.948Z,23.88
2022-11-18T01:39:02.684Z,24.88
2022-11-18T01:42:12.931Z,22.90
2022-11-18T01:45:29.226Z,26.42
2022-11-18T01:48:36.061Z,26.38
2022-11-18T01:51:46.295Z,23.98
2022-11-18T01:54:55.359Z,27.25
2022-11-18T01:58:04.963Z,25.07
2022-11-18T02:01:08.787Z,24.00
2022-11-18T02:04:12.899Z,23.10
2022-11-18T02:07:16.401Z,27.52
2022-11-18T02:10:25.217Z,26.73
2022-11-18T02:13:29.663Z,24.23
2022-11-18T02:16:46.340Z,25.30
2022-11-18T02:20:23.884Z,26.17
2022-11-18T02:23:57.246Z,26.85
2022-11-18T02:27:42.058Z,26.50
2022-11-18T02:30:54.693Z,25.93
2022-11-18T02:34:04.975Z,24.50
2022-11-18T02:37:16.156Z,24.60
2022-11-18T02:40:23.731Z,26.50
2022-11-18T02:43:31.882Z,27.83
2022-11-18T02:46:38.768Z,25.53
2022-11-18T02:49:45.731Z,25.40
2022-11-18T02:52:53.750Z,26.20
2022-11-18T02:55:57.243Z,24.63
2022-11-18T02:58:59.944Z,25.70
2022-11-18T03:02:06.577Z,24.77
2022-11-18T03:05:14.270Z,23.63
2022-11-18T03:08:23.780Z,24.92
2022-11-18T03:11:30.446Z,26.50
2022-11-18T03:14:42.249Z,25.58
2022-11-18T03:17:57.830Z,25.87
2022-11-18T03:21:08.123Z,26.85
2022-11-18T03:24:15.418Z,25.27
2022-11-18T03:27:25.087Z,27.00
2022-11-18T03:30:31.338Z,26.88
2022-11-18T03:33:39.719Z,25.93
2022-11-18T03:36:51.359Z,30.23
2022-11-18T03:39:58.768Z,26.90
2022-11-18T03:43:07.567Z,26.48
2022-11-18T03:46:13.420Z,28.05
2022-11-18T03:49:23.253Z,27.60
2022-11-18T03:52:31.220Z,26.35
2022-11-18T03:55:39.550Z,27.05
2022-11-18T03:58:52.046Z,28.33
2022-11-18T04:02:00.521Z,26.58
2022-11-18T04:05:07.111Z,27.97
2022-11-18T04:08:14.151Z,30.35
2022-11-18T04:11:38.688Z,28.50
2022-11-18T04:14:44.128Z,28.27
2022-11-18T04:17:46.960Z,30.20
2022-11-18T04:20:50.996Z,30.57
2022-11-18T04:23:53.897Z,29.92
2022-11-18T04:26:56.726Z,32.45
2022-11-18T04:29:59.422Z,30.60
2022-11-18T04:33:02.394Z,36.00
2022-11-18T04:36:07.122Z,32.00
2022-11-18T04:39:09.991Z,33.50
2022-11-18T04:42:12.803Z,35.37
2022-11-18T04:45:15.494Z,36.45
2022-11-18T04:48:19.411Z,35.00
2022-11-18T04:51:23.424Z,33.85
2022-11-18T04:54:27.344Z,33.77
2022-11-18T04:57:30.000Z,35.17
2022-11-18T05:00:32.727Z,32.17
2022-11-18T05:03:35.375Z,34.38
2022-11-18T05:06:42.966Z,33.22
2022-11-18T05:09:45.616Z,31.73
2022-11-18T05:12:49.950Z,32.23
2022-11-18T05:15:52.631Z,31.55
2022-11-18T05:18:55.587Z,32.25
2022-11-18T05:22:00.080Z,30.67
2022-11-18T05:25:02.977Z,31.90
2022-11-18T05:28:06.128Z,34.27
2022-11-18T05:31:09.452Z,31.58
2022-11-18T05:34:12.521Z,29.58
2022-11-18T05:37:16.776Z,30.13
2022-11-18T05:40:21.812Z,30.83
2022-11-18T05:43:23.678Z,29.13
2022-11-18T05:46:26.719Z,31.85
2022-11-18T05:49:29.578Z,30.75
2022-11-18T05:52:33.644Z,29.55
2022-11-18T05:55:40.760Z,27.83
2022-11-18T05:58:43.436Z,28.70
2022-11-18T06:01:50.576Z,27.73
2022-11-18T06:04:59.117Z,25.88
2022-11-18T06:08:03.709Z,24.08
2022-11-18T06:11:08.453Z,21.67
2022-11-18T06:14:15.867Z,22.13
2022-11-18T06:17:23.832Z,21.98
2022-11-18T06:20:27.440Z,21.77
2022-11-18T06:23:34.832Z,20.65
2022-11-18T06:26:37.979Z,21.93
2022-11-18T06:29:40.692Z,22.73
2022-11-18T06:32:43.473Z,20.15
2022-11-18T06:35:46.392Z,22.85
2022-11-18T06:38:50.558Z,21.33
2022-11-18T06:41:53.756Z,24.23
2022-11-18T06:44:56.601Z,21.97
2022-11-18T06:48:00.275Z,20.15
2022-11-18T06:51:06.058Z,22.63
2022-11-18T06:54:11.192Z,24.02
2022-11-18T06:57:14.291Z,23.57
2022-11-18T07:00:18.139Z,22.80
2022-11-18T07:03:20.947Z,23.38
2022-11-18T07:06:26.110Z,22.48
2022-11-18T07:09:30.167Z,23.40
2022-11-18T07:12:33.187Z,23.30
2022-11-18T07:15:35.868Z,25.27
2022-11-18T07:18:41.749Z,24.15
2022-11-18T07:21:44.430Z,24.40
2022-11-18T07:24:48.597Z,23.67
2022-11-18T07:27:51.271Z,23.97
2022-11-18T07:30:54.106Z,24.13
2022-11-18T07:33:56.825Z,26.30
2022-11-18T07:36:59.522Z,22.60
2022-11-18T07:40:03.726Z,23.77
2022-11-18T07:43:07.393Z,24.07
2022-11-18T07:46:13.737Z,24.90
2022-11-18T07:49:17.055Z,26.25
2022-11-18T07:52:19.910Z,23.02
2022-11-18T07:55:27.984Z,27.30
2022-11-18T07:58:33.582Z,28.30
2022-11-18T08:01:37.014Z,26.07
2022-11-18T08:04:39.817Z,24.08
2022-11-18T08:07:42.707Z,26.58
2022-11-18T08:10:46.936Z,24.27
2022-11-18T08:13:49.662Z,25.40
2022-11-18T08:16:52.521Z,25.70
2022-11-18T08:19:55.240Z,23.38
2022-11-18T08:22:58.136Z,23.45
2022-11-18T08:26:05.647Z,25.73
2022-11-18T08:29:08.316Z,23.02
2022-11-18T08:32:11.129Z,27.00
2022-11-18T08:35:14.121Z,25.17
2022-11-18T08:38:16.913Z,22.98
2022-11-18T08:41:25.417Z,24.73
2022-11-18T08:44:28.113Z,24.88
2022-11-18T08:47:30.909Z,25.13
2022-11-18T08:50:34.145Z,23.73
2022-11-18T08:53:37.254Z,24.58
2022-11-18T08:56:41.453Z,22.00
2022-11-18T08:59:44.141Z,19.38
2022-11-18T09:02:46.833Z,24.75
2022-11-18T09:05:49.712Z,24.80
2022-11-18T09:08:52.548Z,22.73
2022-11-18T09:11:56.676Z,23.27
2022-11-18T09:15:13.378Z,23.85
2022-11-18T09:18:16.783Z,20.98
2022-11-18T09:21:20.141Z,21.27
2022-11-18T09:24:22.809Z,21.98
2022-11-18T09:27:26.964Z,22.60
2022-11-18T09:30:29.640Z,19.45
2022-11-18T09:33:32.496Z,22.05
2022-11-18T09:36:35.288Z,19.70
2022-11-18T09:39:38.244Z,21.75
2022-11-18T09:42:57.339Z,20.40
2022-11-18T09:46:04.727Z,20.38
2022-11-18T09:49:16.006Z,20.13
2022-11-18T09:52:23.218Z,18.80
2022-11-18T09:55:26.164Z,18.05
2022-11-18T09:58:35.643Z,17.73
2022-11-18T10:01:38.521Z,17.90
2022-11-18T10:04:41.423Z,18.57
2022-11-18T10:07:53.617Z,18.23
2022-11-18T10:11:04.626Z,16.60
2022-11-18T10:14:23.712Z,16.40
2022-11-18T10:17:47.833Z,16.95
2022-11-18T10:20:57.833Z,16.10
2022-11-18T10:24:05.149Z,16.03
2022-11-18T10:27:12.583Z,16.70
2022-11-18T10:30:19.912Z,15.57
2022-11-18T10:33:28.646Z,17.50
2022-11-18T10:36:34.292Z,16.33
2022-11-18T10:39:50.786Z,16.00
2022-11-18T10:42:53.523Z,16.98
2022-11-18T10:45:57.743Z,17.25
2022-11-18T10:49:16.346Z,15.00
2022-11-18T10:52:19.757Z,13.93
2022-11-18T10:55:24.417Z,13.53
2022-11-18T10:58:29.064Z,13.90
2022-11-18T11:01:33.412Z,15.63
2022-11-18T11:04:38.496Z,13.77
2022-11-18T11:07:41.456Z,15.20
2022-11-18T11:10:55.690Z,13.30
2022-11-18T11:14:24.568Z,13.85
2022-11-18T11:17:33.181Z,12.25
2022-11-18T11:20:37.392Z,11.82
2022-11-18T11:23:40.711Z,12.67
2022-11-18T11:30:19.983Z,10.98
2022-11-18T11:33:40.363Z,12.02
2022-11-18T11:36:49.140Z,12.85
2022-11-18T11:40:14.246Z,11.57
2022-11-18T11:43:29.834Z,11.73
2022-11-18T11:47:06.564Z,11.38
2022-11-18T11:50:18.428Z,12.02
2022-11-18T11:53:33.161Z,13.95
2022-11-18T11:56:41.900Z,13.10
2022-11-18T11:59:52.314Z,11.87
2022-11-18T12:03:12.153Z,11.95
2022-11-18T12:06:16.444Z,14.10
2022-11-18T12:09:25.724Z,12.18
2022-11-18T12:12:38.170Z,13.97
2022-11-18T12:15:52.975Z,14.57
2022-11-18T12:18:59.221Z,11.85
2022-11-18T12:22:04.836Z,12.38
2022-11-18T12:25:57.184Z,11.30
2022-11-18T12:29:23.727Z,12.53
2022-11-18T12:32:36.223Z,11.17
2022-11-18T12:35:39.266Z,10.73
2022-11-18T12:38:43.421Z,8.93
2022-11-18T12:42:14.421Z,9.98
2022-11-18T12:45:48.932Z,11.50
2022-11-18T12:48:51.620Z,9.32
2022-11-18T12:51:55.801Z,10.07
2022-11-18T12:55:02.250Z,11.27
2022-11-18T12:58:05.037Z,10.93
2022-11-18T13:01:09.792Z,10.30
2022-11-18T13:04:19.335Z,10.57
2022-11-18T13:07:40.185Z,10.60
2022-11-18T13:10:54.597Z,10.40
2022-11-18T13:14:16.627Z,10.50
2022-11-18T13:17:45.185Z,12.02
2022-11-18T13:20:57.464Z,11.52
2022-11-18T13:24:01.063Z,10.80
2022-11-18T13:27:05.734Z,9.40
2022-11-18T13:30:13.602Z,10.90
2022-11-18T13:33:16.354Z,9.35
2022-11-18T13:36:20.162Z,10.55
2022-11-18T13:39:25.490Z,9.27
2022-11-18T13:42:30.954Z,9.73
2022-11-18T13:45:35.978Z,10.38
2022-11-18T13:48:44.005Z,10.00
2022-11-18T13:51:47.189Z,10.80
2022-11-18T13:54:52.552Z,11.60
2022-11-18T13:58:02.225Z,15.40
2022-11-18T14:01:07.503Z,11.73
2022-11-18T14:04:19.189Z,12.15
2022-11-18T14:07:31.721Z,11.18
2022-11-18T14:10:42.903Z,12.50
2022-11-18T14:13:54.490Z,11.33
2022-11-18T14:17:06.114Z,11.82
2022-11-18T14:20:17.541Z,9.75
2022-11-18T14:23:27.048Z,11.05
2022-11-18T14:26:31.213Z,11.40
2022-11-18T14:29:35.281Z,11.60
2022-11-18T14:32:37.988Z,9.55
2022-11-18T14:35:41.585Z,10.02
2022-11-18T14:42:13.835Z,12.73
2022-11-18T14:45:18.029Z,10.87
2022-11-18T14:48:26.063Z,11.32
2022-11-18T14:51:32.395Z,11.25
2022-11-18T14:54:35.364Z,10.73
2022-11-18T14:57:38.095Z,11.63
2022-11-18T15:00:42.874Z,16.37
2022-11-18T15:03:45.789Z,10.40
2022-11-18T15:06:48.822Z,12.32
2022-11-18T15:09:51.970Z,10.68
2022-11-18T15:12:55.473Z,10.63
2022-11-18T15:15:59.795Z,10.37
2022-11-18T15:19:04.347Z,9.60
2022-11-18T15:22:07.010Z,10.48
2022-11-18T15:25:11.108Z,9.68
2022-11-18T15:28:13.959Z,9.33
2022-11-18T15:31:18.903Z,9.87
2022-11-18T15:34:22.072Z,9.02
2022-11-18T15:37:24.845Z,9.15
2022-11-18T15:40:28.031Z,9.52
2022-11-18T15:43:30.908Z,8.87
2022-11-18T15:46:34.963Z,9.97
2022-11-18T15:49:37.876Z,8.75
2022-11-18T15:52:40.557Z,8.73
2022-11-18T15:55:43.218Z,9.07
2022-11-18T15:58:46.049Z,7.67
2022-11-18T16:01:50.629Z,9.10
2022-11-18T16:04:53.476Z,8.90
2022-11-18T16:07:56.158Z,8.38
2022-11-18T16:11:17.266Z,8.85
2022-11-18T16:14:22.504Z,10.13
2022-11-18T16:17:26.921Z,13.57
2022-11-18T16:20:29.857Z,12.50
2022-11-18T16:23:32.538Z,11.93
2022-11-18T16:26:37.306Z,12.00
2022-11-18T16:29:40.136Z,10.70
2022-11-18T16:37:16.864Z,12.07
2022-11-18T16:40:19.561Z,10.77
2022-11-18T16:43:22.270Z,11.53
2022-11-18T16:46:26.391Z,12.67
2022-11-18T16:49:29.125Z,11.20
2022-11-18T16:52:33.198Z,11.15
2022-11-18T16:55:35.913Z,11.15
2022-11-18T16:58:38.589Z,11.67
2022-11-18T17:01:42.985Z,11.57
2022-11-18T17:04:45.650Z,11.75
2022-11-18T17:07:49.858Z,11.57
2022-11-18T17:10:52.694Z,11.20
2022-11-18T17:13:58.299Z,12.90
2022-11-18T17:17:01.190Z,11.40
2022-11-18T17:20:04.051Z,12.00
2022-11-18T17:23:08.285Z,11.85
2022-11-18T17:26:11.013Z,13.27
2022-11-18T17:29:15.797Z,12.63
2022-11-18T17:32:19.018Z,12.90
2022-11-18T17:35:21.702Z,12.15
2022-11-18T17:38:27.016Z,12.80
2022-11-18T17:41:49.039Z,13.83
2022-11-18T17:44:51.718Z,13.00
2022-11-18T17:47:56.661Z,15.18
2022-11-18T17:51:05.141Z,12.07
2022-11-18T17:54:10.887Z,9.88
2022-11-18T17:57:13.661Z,10.43
2022-11-18T18:00:17.773Z,9.93
2022-11-18T18:03:20.495Z,9.25
2022-11-18T18:06:23.228Z,9.07
2022-11-18T18:09:31.068Z,11.57
2022-11-18T18:12:53.852Z,10.10
2022-11-18T18:19:24.163Z,15.90
2022-11-18T18:22:26.860Z,17.42
2022-11-18T18:25:30.901Z,18.73
2022-11-18T18:31:55.531Z,16.30
2022-11-18T18:34:59.527Z,17.52
2022-11-18T18:38:03.424Z,17.48
2022-11-18T18:41:09.553Z,15.48
2022-11-18T18:44:18.008Z,14.90
2022-11-18T18:47:20.223Z,15.30
2022-11-18T18:53:44.993Z,15.38
2022-11-18T18:56:52.139Z,14.43
2022-11-18T18:59:56.145Z,14.27
2022-11-18T19:03:00.199Z,11.10
2022-11-18T19:06:56.822Z,12.93
2022-11-18T19:09:40.316Z,10.82
2022-11-18T19:12:45.671Z,11.30
2022-11-18T19:15:48.471Z,11.47
2022-11-18T19:18:51.213Z,12.83
2022-11-18T19:21:55.206Z,14.45
2022-11-18T19:24:58.912Z,15.82
2022-11-18T19:28:07.670Z,15.75
2022-11-18T19:31:10.954Z,14.30
2022-11-18T19:34:14.277Z,15.57
2022-11-18T19:37:17.379Z,15.63
2022-11-18T19:40:21.586Z,17.23
2022-11-18T19:43:27.338Z,16.00
2022-11-18T19:46:31.872Z,13.33
2022-11-18T19:49:34.682Z,16.07
2022-11-18T19:52:38.674Z,16.00
2022-11-18T19:55:41.349Z,18.48
2022-11-18T19:58:47.780Z,20.50
2022-11-18T20:01:50.552Z,18.40
2022-11-18T20:05:12.062Z,21.70
2022-11-18T20:08:14.688Z,19.17
2022-11-18T20:11:20.643Z,21.85
2022-11-18T20:14:24.678Z,24.15
2022-11-18T20:17:28.657Z,26.83
2022-11-18T20:20:32.658Z,28.67
2022-11-18T20:23:37.221Z,30.17
2022-11-18T20:26:41.758Z,23.77
2022-11-18T20:29:46.026Z,28.27
2022-11-18T20:32:48.718Z,27.97
2022-11-18T20:35:51.434Z,28.50
2022-11-18T20:38:56.147Z,24.58
2022-11-18T20:42:16.226Z,26.30
2022-11-18T20:45:21.625Z,29.60
2022-11-18T20:48:24.546Z,28.57
2022-11-18T20:54:51.283Z,27.52
2022-11-18T20:57:53.995Z,29.60
2022-11-18T21:01:01.699Z,26.75
2022-11-18T21:04:06.015Z,30.83
2022-11-18T21:07:08.773Z,27.20
2022-11-18T21:10:11.578Z,28.55
2022-11-18T21:13:33.644Z,26.98
2022-11-18T21:16:38.159Z,27.77
2022-11-18T21:19:47.210Z,24.87
2022-11-18T21:22:51.203Z,24.77
2022-11-18T21:25:53.959Z,25.95
2022-11-18T21:28:58.112Z,22.15
2022-11-18T21:32:03.637Z,22.75
2022-11-18T21:35:06.947Z,22.83
2022-11-18T21:38:11.419Z,21.97
2022-11-18T21:41:15.673Z,22.05
2022-11-18T21:44:18.628Z,21.42
2022-11-18T21:47:26.563Z,24.02
2022-11-18T21:50:30.793Z,21.37
2022-11-18T21:53:34.007Z,22.17
2022-11-18T21:56:40.367Z,21.88
2022-11-18T21:59:47.425Z,23.00
2022-11-18T22:02:55.000Z,22.77
2022-11-18T22:09:20.565Z,21.20
2022-11-18T22:12:24.854Z,22.45
2022-11-18T22:15:28.834Z,19.98
2022-11-18T22:18:33.823Z,21.83
2022-11-18T22:21:37.754Z,20.60
2022-11-18T22:24:40.588Z,21.83
2022-11-18T22:27:44.506Z,20.92
2022-11-18T22:30:48.399Z,20.83
2022-11-18T22:33:54.778Z,19.52
2022-11-18T22:36:58.782Z,21.57
2022-11-18T22:40:02.735Z,21.83
2022-11-18T22:43:04.413Z,19.95
2022-11-18T22:46:10.541Z,19.40
2022-11-18T22:49:14.991Z,19.67
2022-11-18T22:52:18.898Z,19.13
2022-11-18T22:55:21.540Z,22.67
2022-11-18T22:58:25.510Z,20.55
2022-11-18T23:01:29.682Z,19.57
2022-11-18T23:04:33.756Z,20.70
2022-11-18T23:07:37.787Z,22.67
2022-11-18T23:10:40.488Z,21.08
2022-11-18T23:14:04.878Z,19.00
2022-11-18T23:17:07.651Z,21.23
2022-11-18T23:20:13.870Z,22.92
2022-11-18T23:23:17.931Z,19.02
2022-11-18T23:26:20.750Z,22.25
2022-11-18T23:29:24.706Z,19.40
2022-11-18T23:32:27.402Z,19.70
2022-11-18T23:35:31.464Z,18.92
2022-11-18T23:38:36.663Z,17.70
2022-11-18T23:41:40.070Z,19.30
2022-11-18T23:44:53.966Z,19.10
2022-11-18T23:47:57.902Z,18.97
2022-11-18T23:51:03.834Z,19.90
2022-11-18T23:54:07.981Z,19.23
2022-11-18T23:57:12.007Z,19.10
